createdAt,value
2018-04-23T00:01:06.927Z,14.50
2018-04-23T00:03:35.185Z,15.60
2018-04-23T00:06:04.327Z,16.37
2018-04-23T00:08:33.441Z,17.53
2018-04-23T00:11:01.669Z,16.10
2018-04-23T00:13:30.696Z,18.10
2018-04-23T00:15:58.932Z,18.97
2018-04-23T00:18:28.123Z,18.07
2018-04-23T00:20:57.207Z,20.53
2018-04-23T00:23:25.443Z,22.60
2018-04-23T00:25:54.480Z,22.20
2018-04-23T00:28:22.723Z,18.47
2018-04-23T00:30:51.762Z,18.87
2018-04-23T00:33:20.756Z,17.87
2018-04-23T00:35:49.052Z,17.90
2018-04-23T00:38:17.314Z,18.20
2018-04-23T00:40:45.551Z,18.13
2018-04-23T00:43:14.542Z,20.53
2018-04-23T00:45:42.788Z,19.93
2018-04-23T00:48:11.052Z,20.23
2018-04-23T00:50:39.316Z,21.23
2018-04-23T00:53:19.655Z,22.20
2018-04-23T00:55:48.656Z,22.70
2018-04-23T00:58:17.672Z,27.73
2018-04-23T01:00:45.948Z,26.87
2018-04-23T01:03:14.955Z,26.03
2018-04-23T01:05:43.209Z,26.47
2018-04-23T01:08:12.616Z,25.83
2018-04-23T01:10:41.317Z,26.40
2018-04-23T01:13:10.834Z,30.80
2018-04-23T01:15:39.083Z,27.90
2018-04-23T01:18:07.456Z,29.17
2018-04-23T01:20:35.696Z,28.93
2018-04-23T01:23:03.952Z,28.33
2018-04-23T01:25:32.961Z,27.33
2018-04-23T01:28:01.233Z,26.63
2018-04-23T01:30:30.241Z,27.70
2018-04-23T01:32:58.476Z,28.37
2018-04-23T01:35:26.757Z,28.50
2018-04-23T01:37:54.995Z,25.77
2018-04-23T01:40:24.108Z,24.43
2018-04-23T01:42:52.352Z,28.13
2018-04-23T01:45:21.375Z,28.07
2018-04-23T01:47:49.604Z,27.40
2018-04-23T01:50:17.866Z,25.30
2018-04-23T01:52:46.099Z,25.73
2018-04-23T01:55:14.359Z,26.00
2018-04-23T01:57:42.599Z,25.23
2018-04-23T02:00:10.871Z,23.87
2018-04-23T02:02:39.103Z,24.30
2018-04-23T02:05:08.131Z,22.80
2018-04-23T02:07:36.368Z,24.87
2018-04-23T02:10:04.644Z,23.47
2018-04-23T02:12:32.983Z,22.73
2018-04-23T02:15:01.244Z,22.30
2018-04-23T02:17:30.316Z,22.93
2018-04-23T02:19:59.329Z,21.83
2018-04-23T02:22:28.335Z,21.77
2018-04-23T02:24:58.093Z,21.73
2018-04-23T02:27:26.319Z,22.40
2018-04-23T02:29:55.340Z,22.07
2018-04-23T02:32:24.361Z,21.57
2018-04-23T02:34:52.606Z,23.03
2018-04-23T02:37:22.507Z,22.00
2018-04-23T02:39:50.764Z,21.50
2018-04-23T02:42:19.012Z,22.33
2018-04-23T02:44:47.287Z,21.17
2018-04-23T02:47:15.560Z,22.73
2018-04-23T02:49:44.592Z,22.13
2018-04-23T02:52:12.857Z,21.57
2018-04-23T02:54:41.127Z,21.20
2018-04-23T02:57:09.377Z,20.40
2018-04-23T02:59:37.684Z,20.33
2018-04-23T03:02:06.688Z,20.30
2018-04-23T03:04:35.712Z,21.17
2018-04-23T03:07:03.969Z,21.13
2018-04-23T03:09:32.224Z,20.47
2018-04-23T03:12:01.233Z,21.40
2018-04-23T03:14:30.255Z,21.03
2018-04-23T03:16:58.565Z,20.23
2018-04-23T03:19:26.819Z,19.90
2018-04-23T03:21:55.060Z,18.93
2018-04-23T03:24:23.311Z,19.23
2018-04-23T03:26:52.354Z,18.40
2018-04-23T03:29:21.377Z,18.80
2018-04-23T03:31:49.693Z,19.20
2018-04-23T03:34:17.941Z,19.93
2018-04-23T03:36:47.077Z,19.23
2018-04-23T03:39:16.051Z,19.10
2018-04-23T03:41:45.172Z,18.77
2018-04-23T03:44:13.455Z,18.50
2018-04-23T03:46:41.708Z,18.50
2018-04-23T03:49:10.041Z,18.50
2018-04-23T03:51:38.307Z,18.50
2018-04-23T03:54:06.543Z,17.67
2018-04-23T03:56:35.712Z,16.63
2018-04-23T03:59:03.979Z,16.83
2018-04-23T04:01:32.244Z,15.03
2018-04-23T04:04:00.498Z,15.37
2018-04-23T04:06:28.765Z,14.93
2018-04-23T04:08:57.015Z,15.30
2018-04-23T04:11:25.259Z,14.20
2018-04-23T04:14:05.443Z,13.57
2018-04-23T04:16:45.480Z,13.07
2018-04-23T04:19:13.817Z,13.20
2018-04-23T04:21:42.130Z,13.47
2018-04-23T04:24:11.122Z,13.73
2018-04-23T04:26:39.428Z,14.03
2018-04-23T04:29:10.631Z,12.63
2018-04-23T04:31:39.659Z,13.27
2018-04-23T04:34:07.918Z,12.80
2018-04-23T04:36:36.187Z,12.27
2018-04-23T04:39:05.082Z,12.60
2018-04-23T04:41:34.113Z,12.23
2018-04-23T04:44:02.379Z,12.23
2018-04-23T04:46:30.648Z,11.80
2018-04-23T04:48:58.916Z,12.73
2018-04-23T04:51:27.945Z,11.80
2018-04-23T04:53:57.104Z,11.83
2018-04-23T04:56:26.142Z,12.23
2018-04-23T04:58:54.362Z,12.03
2018-04-23T05:01:22.625Z,11.70
2018-04-23T05:03:50.873Z,12.23
2018-04-23T05:06:19.152Z,12.77
2018-04-23T05:08:47.407Z,12.97
2018-04-23T05:11:16.444Z,11.80
2018-04-23T05:13:44.755Z,11.97
2018-04-23T05:16:13.029Z,11.97
2018-04-23T05:18:41.270Z,12.07
2018-04-23T05:21:09.555Z,11.97
2018-04-23T05:23:37.880Z,12.40
2018-04-23T05:26:06.840Z,12.23
2018-04-23T05:28:35.110Z,11.60
2018-04-23T05:31:04.129Z,10.87
2018-04-23T05:33:32.391Z,11.83
2018-04-23T05:36:01.405Z,12.70
2018-04-23T05:38:29.688Z,13.90
2018-04-23T05:40:57.924Z,12.60
2018-04-23T05:43:26.763Z,12.33
2018-04-23T05:45:55.023Z,12.37
2018-04-23T05:48:24.060Z,12.07
2018-04-23T05:50:52.336Z,11.93
2018-04-23T05:53:20.576Z,12.83
2018-04-23T05:55:49.622Z,13.33
2018-04-23T05:58:17.918Z,13.10
2018-04-23T06:00:46.920Z,12.53
2018-04-23T06:03:15.194Z,11.77
2018-04-23T06:05:44.233Z,11.67
2018-04-23T06:08:13.270Z,12.43
2018-04-23T06:10:41.532Z,13.90
2018-04-23T06:13:09.797Z,12.47
2018-04-23T06:15:38.813Z,11.57
2018-04-23T06:18:07.090Z,11.17
2018-04-23T06:20:35.349Z,12.33
2018-04-23T06:23:04.397Z,12.00
2018-04-23T06:25:32.666Z,14.00
2018-04-23T06:28:00.919Z,13.73
2018-04-23T06:30:29.936Z,12.77
2018-04-23T06:32:58.208Z,11.30
2018-04-23T06:35:27.369Z,11.07
2018-04-23T06:37:56.410Z,9.77
2018-04-23T06:40:25.497Z,10.67
2018-04-23T06:42:54.535Z,10.47
2018-04-23T06:45:22.787Z,9.93
2018-04-23T06:47:51.175Z,10.03
2018-04-23T06:50:20.211Z,9.27
2018-04-23T06:52:49.125Z,9.03
2018-04-23T06:55:17.382Z,9.17
2018-04-23T06:57:45.616Z,9.00
2018-04-23T07:00:14.129Z,9.17
2018-04-23T07:02:43.135Z,9.20
2018-04-23T07:05:11.898Z,9.00
2018-04-23T07:07:40.107Z,9.27
2018-04-23T07:10:08.354Z,8.80
2018-04-23T07:12:37.376Z,9.10
2018-04-23T07:15:06.084Z,9.47
2018-04-23T07:17:34.362Z,8.80
2018-04-23T07:20:02.718Z,9.13
2018-04-23T07:22:31.760Z,9.20
2018-04-23T07:25:00.008Z,8.60
2018-04-23T07:27:28.296Z,9.20
2018-04-23T07:29:56.601Z,9.23
2018-04-23T07:32:24.859Z,9.73
2018-04-23T07:34:53.223Z,10.67
2018-04-23T07:37:21.424Z,10.00
2018-04-23T07:39:49.687Z,10.57
2018-04-23T07:42:18.721Z,10.47
2018-04-23T07:44:47.014Z,10.40
2018-04-23T07:47:15.275Z,9.30
2018-04-23T07:49:43.568Z,8.93
2018-04-23T07:52:11.813Z,9.33
2018-04-23T07:54:40.852Z,9.50
2018-04-23T07:57:09.084Z,8.00
2018-04-23T07:59:38.123Z,8.77
2018-04-23T08:02:07.136Z,8.57
2018-04-23T08:04:36.158Z,9.07
2018-04-23T08:07:04.409Z,8.70
2018-04-23T08:09:32.670Z,9.90
2018-04-23T08:12:01.216Z,8.87
2018-04-23T08:14:29.466Z,9.37
2018-04-23T08:16:57.744Z,8.70
2018-04-23T08:19:25.988Z,8.10
2018-04-23T08:21:54.580Z,9.00
2018-04-23T08:24:23.589Z,9.00
2018-04-23T08:26:51.827Z,8.67
2018-04-23T08:29:20.170Z,8.77
2018-04-23T08:31:48.468Z,8.60
2018-04-23T08:34:17.434Z,8.47
2018-04-23T08:36:45.743Z,9.03
2018-04-23T08:39:13.995Z,9.17
2018-04-23T08:41:42.349Z,8.73
2018-04-23T08:44:10.531Z,8.50
2018-04-23T08:46:39.564Z,8.90
2018-04-23T08:49:07.807Z,7.20
2018-04-23T08:51:37.296Z,7.60
2018-04-23T08:54:05.546Z,7.97
2018-04-23T08:56:33.900Z,7.93
2018-04-23T08:59:02.929Z,7.80
2018-04-23T09:01:31.236Z,7.97
2018-04-23T09:04:00.952Z,7.90
2018-04-23T09:06:29.181Z,8.50
2018-04-23T09:08:57.465Z,8.70
2018-04-23T09:11:25.730Z,8.37
2018-04-23T09:13:54.761Z,8.37
2018-04-23T09:16:23.724Z,8.47
2018-04-23T09:18:52.767Z,8.00
2018-04-23T09:21:21.087Z,8.40
2018-04-23T09:23:49.364Z,8.50
2018-04-23T09:26:17.652Z,9.70
2018-04-23T09:28:45.920Z,8.13
2018-04-23T09:31:14.205Z,8.67
2018-04-23T09:33:42.480Z,8.60
2018-04-23T09:36:10.744Z,8.37
2018-04-23T09:38:39.001Z,8.83
2018-04-23T09:41:07.268Z,8.13
2018-04-23T09:43:35.620Z,8.57
2018-04-23T09:46:04.720Z,8.50
2018-04-23T09:48:32.992Z,8.03
2018-04-23T09:51:01.248Z,7.70
2018-04-23T09:53:29.522Z,9.17
2018-04-23T09:55:57.773Z,8.47
2018-04-23T09:58:26.116Z,7.37
2018-04-23T10:00:54.411Z,7.00
2018-04-23T10:03:25.478Z,7.13
2018-04-23T10:05:54.516Z,6.93
2018-04-23T10:08:22.751Z,6.80
2018-04-23T10:10:51.817Z,6.90
2018-04-23T10:13:20.878Z,7.53
2018-04-23T10:15:49.512Z,7.93
2018-04-23T10:18:17.751Z,7.60
2018-04-23T10:20:46.008Z,7.33
2018-04-23T10:23:15.056Z,8.43
2018-04-23T10:25:43.315Z,7.30
2018-04-23T10:28:11.588Z,7.37
2018-04-23T10:30:40.137Z,7.90
2018-04-23T10:33:08.356Z,6.40
2018-04-23T10:35:36.629Z,7.40
2018-04-23T10:38:04.873Z,8.23
2018-04-23T10:40:33.154Z,8.83
2018-04-23T10:43:01.381Z,8.67
2018-04-23T10:45:29.669Z,7.93
2018-04-23T10:47:57.964Z,7.30
2018-04-23T10:50:26.206Z,6.83
2018-04-23T10:52:55.240Z,6.72
2018-04-23T10:55:23.503Z,6.90
2018-04-23T10:57:52.338Z,6.60
2018-04-23T11:00:20.589Z,7.18
2018-04-23T11:02:49.434Z,6.40
2018-04-23T11:05:17.692Z,7.20
2018-04-23T11:07:45.932Z,7.13
2018-04-23T11:10:14.184Z,6.93
2018-04-23T11:12:43.195Z,7.43
2018-04-23T11:15:12.227Z,6.00
2018-04-23T11:17:40.457Z,6.80
2018-04-23T11:20:09.483Z,6.70
2018-04-23T11:22:37.743Z,6.00
2018-04-23T11:25:05.989Z,6.23
2018-04-23T11:27:34.248Z,6.87
2018-04-23T11:30:02.978Z,7.27
2018-04-23T11:32:31.237Z,7.20
2018-04-23T11:34:59.469Z,6.57
2018-04-23T11:37:28.472Z,6.30
2018-04-23T11:39:56.736Z,6.63
2018-04-23T11:42:24.969Z,6.33
2018-04-23T11:44:53.416Z,6.13
2018-04-23T11:47:22.425Z,6.18
2018-04-23T11:49:50.661Z,6.23
2018-04-23T11:52:18.930Z,5.73
2018-04-23T11:54:47.165Z,5.93
2018-04-23T11:57:15.428Z,6.23
2018-04-23T11:59:44.458Z,7.45
2018-04-23T12:02:12.697Z,6.90
2018-04-23T12:04:41.710Z,6.43
2018-04-23T12:07:10.779Z,6.17
2018-04-23T12:09:39.001Z,5.10
2018-04-23T12:12:07.289Z,6.12
2018-04-23T12:14:35.555Z,6.37
2018-04-23T12:17:04.693Z,5.80
2018-04-23T12:19:34.347Z,5.85
2018-04-23T12:22:02.637Z,7.10
2018-04-23T12:24:31.400Z,5.60
2018-04-23T12:26:59.679Z,6.40
2018-04-23T12:29:27.927Z,5.85
2018-04-23T12:31:56.186Z,7.30
2018-04-23T12:34:26.064Z,6.93
2018-04-23T12:36:54.315Z,7.00
2018-04-23T12:39:22.570Z,7.28
2018-04-23T12:41:51.596Z,6.25
2018-04-23T12:44:19.828Z,5.68
2018-04-23T12:46:48.086Z,6.78
2018-04-23T12:49:16.360Z,6.30
2018-04-23T12:51:45.499Z,6.37
2018-04-23T12:54:14.535Z,5.25
2018-04-23T12:56:43.384Z,5.50
2018-04-23T12:59:11.656Z,4.93
2018-04-23T13:01:40.776Z,7.00
2018-04-23T13:04:09.053Z,8.50
2018-04-23T13:06:37.293Z,7.93
2018-04-23T13:09:06.334Z,8.63
2018-04-23T13:11:35.213Z,7.32
2018-04-23T13:14:03.522Z,8.98
2018-04-23T13:16:32.550Z,8.80
2018-04-23T13:19:00.788Z,9.30
2018-04-23T13:21:29.824Z,8.63
2018-04-23T13:23:58.069Z,9.20
2018-04-23T13:26:26.323Z,8.77
2018-04-23T13:28:55.042Z,8.10
2018-04-23T13:31:23.352Z,9.27
2018-04-23T13:33:51.566Z,8.07
2018-04-23T13:36:19.843Z,7.95
2018-04-23T13:38:48.091Z,7.55
2018-04-23T13:41:17.096Z,7.27
2018-04-23T13:43:45.333Z,6.97
2018-04-23T13:46:13.570Z,7.90
2018-04-23T13:48:41.865Z,8.50
2018-04-23T13:51:10.138Z,8.75
2018-04-23T13:53:39.244Z,8.50
2018-04-23T13:56:07.477Z,8.18
2018-04-23T13:58:37.289Z,8.23
2018-04-23T14:01:06.440Z,8.40
2018-04-23T14:03:35.589Z,9.33
2018-04-23T14:06:04.636Z,9.10
2018-04-23T14:08:33.728Z,8.77
2018-04-23T14:11:02.680Z,9.63
2018-04-23T14:13:30.931Z,8.10
2018-04-23T14:15:59.207Z,8.30
2018-04-23T14:18:27.472Z,9.03
2018-04-23T14:20:55.744Z,7.70
2018-04-23T14:23:23.997Z,10.57
2018-04-23T14:25:53.046Z,9.40
2018-04-23T14:28:21.300Z,8.63
2018-04-23T14:30:49.566Z,8.37
2018-04-23T14:33:17.821Z,9.13
2018-04-23T14:35:47.001Z,9.67
2018-04-23T14:38:15.306Z,9.83
2018-04-23T14:40:43.547Z,11.68
2018-04-23T14:43:11.803Z,10.00
2018-04-23T14:45:40.067Z,10.97
2018-04-23T14:48:09.099Z,10.27
2018-04-23T14:50:37.407Z,9.33
2018-04-23T14:53:05.694Z,11.03
2018-04-23T14:55:34.759Z,10.77
2018-04-23T14:58:03.057Z,10.77
2018-04-23T15:00:31.322Z,11.37
2018-04-23T15:02:59.593Z,10.90
2018-04-23T15:05:27.847Z,12.17
2018-04-23T15:07:56.887Z,12.77
2018-04-23T15:10:25.171Z,13.97
2018-04-23T15:12:54.882Z,14.73
2018-04-23T15:15:23.176Z,17.50
2018-04-23T15:17:52.183Z,16.20
2018-04-23T15:20:20.511Z,17.23
2018-04-23T15:22:48.755Z,16.60
2018-04-23T15:25:17.015Z,16.77
2018-04-23T15:27:45.276Z,16.70
2018-04-23T15:30:13.543Z,17.07
2018-04-23T15:32:42.572Z,18.10
2018-04-23T15:35:10.950Z,18.97
2018-04-23T15:37:39.205Z,19.77
2018-04-23T15:40:07.423Z,20.30
2018-04-23T15:42:36.610Z,20.63
2018-04-23T15:45:05.608Z,21.30
2018-04-23T15:47:34.212Z,19.60
2018-04-23T15:50:02.488Z,19.30
2018-04-23T15:52:30.817Z,19.07
2018-04-23T15:54:59.392Z,18.47
2018-04-23T15:57:28.134Z,18.90
2018-04-23T15:59:56.412Z,17.97
2018-04-23T16:02:24.669Z,18.67
2018-04-23T16:04:53.743Z,18.93
2018-04-23T16:07:21.997Z,18.57
2018-04-23T16:09:50.280Z,18.17
2018-04-23T16:12:18.521Z,17.97
2018-04-23T16:14:47.544Z,19.07
2018-04-23T16:17:15.799Z,19.63
2018-04-23T16:19:44.817Z,17.87
2018-04-23T16:22:13.068Z,16.33
2018-04-23T16:24:41.349Z,15.37
2018-04-23T16:27:09.787Z,15.80
2018-04-23T16:29:38.398Z,15.97
2018-04-23T16:32:06.644Z,16.37
2018-04-23T16:34:34.928Z,16.67
2018-04-23T16:37:03.173Z,15.27
2018-04-23T16:39:32.226Z,16.67
2018-04-23T16:42:01.278Z,15.53
2018-04-23T16:44:29.620Z,16.50
2018-04-23T16:46:58.245Z,15.00
2018-04-23T16:49:26.491Z,14.43
2018-04-23T16:51:54.768Z,15.80
2018-04-23T16:54:23.096Z,15.30
2018-04-23T16:56:52.168Z,16.30
2018-04-23T16:59:21.308Z,16.30
2018-04-23T17:01:51.100Z,16.20
2018-04-23T17:04:19.844Z,14.63
2018-04-23T17:06:48.296Z,14.07
2018-04-23T17:09:16.998Z,15.10
2018-04-23T17:11:45.248Z,11.50
2018-04-23T17:14:13.642Z,12.87
2018-04-23T17:16:41.926Z,12.20
2018-04-23T17:28:12.308Z,12.97
2018-04-23T17:30:40.586Z,13.70
2018-04-23T17:33:09.611Z,13.80
2018-04-23T17:35:39.394Z,13.70
2018-04-23T17:38:07.652Z,12.80
2018-04-23T17:40:35.915Z,11.33
2018-04-23T17:43:04.160Z,12.20
2018-04-23T17:45:32.445Z,11.33
2018-04-23T17:48:00.677Z,12.60
2018-04-23T17:50:28.939Z,10.77
2018-04-23T17:52:57.183Z,11.23
2018-04-23T17:55:25.553Z,10.80
2018-04-23T17:57:53.797Z,9.83
2018-04-23T18:00:22.090Z,11.57
2018-04-23T18:02:50.337Z,9.83
2018-04-23T18:05:19.955Z,10.00
2018-04-23T18:07:49.575Z,10.13
2018-04-23T18:10:18.607Z,10.93
2018-04-23T18:12:46.819Z,11.13
2018-04-23T18:15:15.544Z,10.00
2018-04-23T18:17:43.788Z,9.70
2018-04-23T18:20:12.065Z,9.87
2018-04-23T18:22:40.300Z,9.57
2018-04-23T18:25:08.540Z,9.57
2018-04-23T18:27:36.823Z,9.87
2018-04-23T18:30:05.115Z,9.23
2018-04-23T18:32:34.126Z,9.50
2018-04-23T18:35:03.181Z,8.40
2018-04-23T18:37:31.672Z,9.47
2018-04-23T18:39:59.923Z,8.30
2018-04-23T18:42:28.183Z,7.33
2018-04-23T18:44:56.447Z,7.80
2018-04-23T18:47:25.474Z,8.50
2018-04-23T18:49:53.836Z,8.57
2018-04-23T18:52:22.053Z,7.40
2018-04-23T18:54:50.337Z,7.40
2018-04-23T18:57:18.648Z,6.70
2018-04-23T18:59:46.884Z,6.67
2018-04-23T19:02:15.136Z,6.07
2018-04-23T19:04:44.162Z,5.63
2018-04-23T19:07:12.439Z,5.80
2018-04-23T19:09:40.936Z,6.27
2018-04-23T19:12:09.676Z,6.43
2018-04-23T19:14:37.963Z,5.73
2018-04-23T19:17:06.246Z,6.30
2018-04-23T19:19:34.506Z,6.10
2018-04-23T19:22:02.767Z,5.67
2018-04-23T19:24:30.994Z,5.70
2018-04-23T19:27:00.008Z,5.80
2018-04-23T19:29:29.012Z,5.50
2018-04-23T19:31:58.115Z,5.30
2018-04-23T19:34:26.654Z,5.00
2018-04-23T19:36:54.931Z,4.87
2018-04-23T19:39:23.266Z,4.53
2018-04-23T19:41:51.549Z,4.70
2018-04-23T19:44:19.807Z,4.37
2018-04-23T19:46:48.836Z,4.37
2018-04-23T19:49:17.059Z,4.53
2018-04-23T19:51:45.314Z,4.33
2018-04-23T19:54:13.577Z,4.20
2018-04-23T19:56:41.833Z,4.13
2018-04-23T19:59:11.288Z,3.77
2018-04-23T20:01:39.530Z,3.70
2018-04-23T20:04:08.559Z,3.93
2018-04-23T20:06:37.708Z,3.63
2018-04-23T20:09:06.012Z,3.60
2018-04-23T20:11:35.030Z,3.10
2018-04-23T20:14:03.301Z,3.20
2018-04-23T20:16:32.382Z,3.83
2018-04-23T20:19:00.618Z,3.40
2018-04-23T20:21:28.923Z,3.33
2018-04-23T20:23:58.343Z,4.17
2018-04-23T20:26:25.432Z,4.10
2018-04-23T20:28:53.689Z,4.00
2018-04-23T20:31:22.731Z,3.97
2018-04-23T20:33:51.004Z,4.40
2018-04-23T20:36:19.259Z,4.40
2018-04-23T20:38:48.271Z,3.60
2018-04-23T20:41:17.136Z,3.43
2018-04-23T20:43:46.646Z,3.10
2018-04-23T20:46:16.124Z,3.37
2018-04-23T20:48:44.377Z,3.60
2018-04-23T20:51:12.621Z,3.50
2018-04-23T20:53:41.579Z,3.57
2018-04-23T20:56:09.819Z,3.70
2018-04-23T20:58:38.831Z,4.00
2018-04-23T21:01:07.099Z,3.70
2018-04-23T21:03:35.346Z,4.03
2018-04-23T21:06:03.614Z,3.63
2018-04-23T21:08:31.892Z,4.10
2018-04-23T21:11:00.133Z,3.43
2018-04-23T21:13:28.384Z,3.60
2018-04-23T21:15:58.284Z,3.37
2018-04-23T21:18:26.535Z,3.17
2018-04-23T21:20:54.771Z,3.33
2018-04-23T21:23:23.799Z,3.70
2018-04-23T21:25:52.629Z,3.50
2018-04-23T21:28:20.824Z,3.40
2018-04-23T21:30:49.068Z,3.60
2018-04-23T21:33:17.354Z,3.33
2018-04-23T21:35:45.764Z,4.23
2018-04-23T21:38:13.997Z,4.07
2018-04-23T21:40:42.255Z,4.17
2018-04-23T21:43:11.271Z,4.80
2018-04-23T21:45:39.535Z,4.57
2018-04-23T21:48:07.775Z,5.00
2018-04-23T21:50:36.871Z,5.30
2018-04-23T21:53:05.139Z,5.30
2018-04-23T21:55:33.396Z,5.40
2018-04-23T21:58:01.665Z,5.27
2018-04-23T22:00:30.728Z,5.40
2018-04-23T22:02:58.965Z,5.67
2018-04-23T22:05:27.217Z,5.70
2018-04-23T22:07:56.272Z,5.67
2018-04-23T22:10:24.497Z,5.80
2018-04-23T22:12:53.520Z,5.70
2018-04-23T22:15:22.657Z,5.80
2018-04-23T22:17:50.924Z,5.77
2018-04-23T22:20:19.339Z,5.40
2018-04-23T22:22:47.665Z,5.23
2018-04-23T22:25:15.938Z,5.43
2018-04-23T22:27:44.935Z,5.67
2018-04-23T22:30:13.188Z,5.50
2018-04-23T22:32:41.432Z,6.00
2018-04-23T22:35:09.696Z,6.33
2018-04-23T22:37:37.924Z,6.27
2018-04-23T22:40:06.187Z,6.37
2018-04-23T22:42:34.426Z,9.87
2018-04-23T22:45:02.685Z,8.70
2018-04-23T22:47:31.700Z,9.63
2018-04-23T22:50:00.007Z,9.33
2018-04-23T22:52:28.754Z,8.93
2018-04-23T22:54:57.780Z,10.07
2018-04-23T22:57:26.012Z,11.13
2018-04-23T22:59:54.658Z,9.13
2018-04-23T23:02:22.919Z,12.57
2018-04-23T23:04:51.177Z,11.90
2018-04-23T23:07:20.209Z,12.87
2018-04-23T23:09:48.514Z,13.33
2018-04-23T23:12:17.634Z,13.07
2018-04-23T23:14:47.284Z,12.93
2018-04-23T23:17:15.560Z,12.40
2018-04-23T23:19:44.564Z,11.57
2018-04-23T23:22:14.511Z,11.27
2018-04-23T23:24:42.810Z,11.90
2018-04-23T23:27:11.049Z,11.10
2018-04-23T23:29:40.509Z,10.70
2018-04-23T23:32:08.768Z,11.53
2018-04-23T23:34:37.109Z,13.40
2018-04-23T23:37:06.136Z,13.37
2018-04-23T23:39:34.372Z,13.53
2018-04-23T23:42:02.615Z,13.77
2018-04-23T23:44:30.852Z,13.73
2018-04-23T23:46:59.886Z,13.47
2018-04-23T23:49:28.186Z,13.50
2018-04-23T23:51:56.396Z,12.93
2018-04-23T23:54:24.650Z,11.27
2018-04-23T23:56:53.737Z,11.73
2018-04-23T23:59:21.985Z,10.20
